Time;durP1;ratioP1;P1;durP2;ratioP2;P2;SDS_P1;SDS_P2;PMS_P1;PMS_P2;Temp;Humidity;BMP_temperature;BMP_pressure;BME280_temperature;BME280_humidity;BME280_pressure;Samples;Min_cycle;Max_cycle;Signal;HPM_P1;HPM_P2
2022/10/20 00:00:58;;;;;;;4.15;2.53;;;;;;;19.69;52.84;101863.38;5086013;28;20052;-38
2022/10/20 00:03:25;;;;;;;4.70;2.72;;;;;;;19.70;52.79;101872.31;5082456;28;20057;-38
2022/10/20 00:05:53;;;;;;;4.30;2.67;;;;;;;19.69;53.40;101865.22;5084905;28;20074;-38
2022/10/20 00:08:20;;;;;;;4.25;2.67;;;;;;;19.69;53.65;101859.84;5086102;28;20351;-38
2022/10/20 00:10:54;;;;;;;4.82;2.42;;;;;;;19.66;52.95;101869.06;5085716;28;20062;-38
2022/10/20 00:13:21;;;;;;;3.47;2.15;;;;;;;19.68;52.93;101864.38;5087231;28;20040;-38
2022/10/20 00:15:52;;;;;;;4.50;2.63;;;;;;;19.66;53.41;101852.91;5085243;28;20051;-38
2022/10/20 00:18:21;;;;;;;3.40;1.98;;;;;;;19.65;53.49;101845.81;5082295;28;20052;-38
2022/10/20 00:20:48;;;;;;;4.57;2.33;;;;;;;19.65;53.11;101850.34;5084598;28;20423;-38
2022/10/20 00:23:15;;;;;;;4.88;2.47;;;;;;;19.64;53.25;101848.66;5083815;28;20036;-38
2022/10/20 00:25:41;;;;;;;4.25;2.47;;;;;;;19.65;53.63;101855.72;5084912;28;20429;-38
2022/10/20 00:28:26;;;;;;;3.70;2.13;;;;;;;19.63;53.14;101855.03;5083202;28;20048;-38
2022/10/20 00:30:55;;;;;;;4.10;2.35;;;;;;;19.61;53.29;101833.63;5084745;28;20061;-38
2022/10/20 00:33:22;;;;;;;4.88;2.30;;;;;;;19.61;53.36;101833.63;5083709;28;20036;-38
2022/10/20 00:35:48;;;;;;;2.72;2.03;;;;;;;19.60;53.64;101831.06;5084564;28;20453;-38
2022/10/20 00:38:15;;;;;;;3.58;2.38;;;;;;;19.61;53.28;101835.44;5081905;28;20059;-38
2022/10/20 00:40:42;;;;;;;3.30;2.20;;;;;;;19.59;53.25;101827.53;5081893;28;20363;-38
2022/10/20 00:43:11;;;;;;;3.22;2.17;;;;;;;19.59;53.48;101824.00;5087928;28;20048;-38
2022/10/20 00:45:41;;;;;;;4.40;2.10;;;;;;;19.57;52.95;101829.50;5081530;28;20049;-38
2022/10/20 00:48:17;;;;;;;3.85;2.33;;;;;;;19.56;53.42;101833.19;5081847;28;20048;-38
2022/10/20 00:50:48;;;;;;;3.10;2.25;;;;;;;19.56;53.27;101827.81;5085543;28;20054;-38
2022/10/20 00:53:21;;;;;;;3.33;1.90;;;;;;;19.55;53.04;101831.50;5082694;28;20068;-38
2022/10/20 00:55:51;;;;;;;3.05;2.00;;;;;;;19.56;53.28;101816.19;5085298;28;20057;-38
2022/10/20 00:58:18;;;;;;;2.97;2.20;;;;;;;19.55;52.79;101814.50;5083122;28;20043;-38
2022/10/20 01:00:49;;;;;;;3.25;1.90;;;;;;;19.53;53.57;101811.94;5081702;28;20075;-38
2022/10/20 01:03:22;;;;;;;2.40;1.98;;;;;;;19.53;53.21;101806.56;5079866;28;20040;-38
2022/10/20 01:05:49;;;;;;;2.85;1.95;;;;;;;19.53;53.69;101805.72;5087438;28;20044;-39
2022/10/20 01:08:15;;;;;;;3.60;2.35;;;;;;;19.52;53.57;101804.88;5083868;28;20051;-38
2022/10/20 01:11:12;;;;;;;2.58;2.03;;;;;;;19.51;52.83;101795.13;5085182;28;20043;-39
2022/10/20 01:14:10;;;;;;;3.03;1.90;;;;;;;19.51;53.10;101789.75;5079547;28;20117;-39
2022/10/20 01:17:03;;;;;;;2.67;2.03;;;;;;;19.49;53.12;101789.84;5084576;28;20051;-38
2022/10/20 01:19:42;;;;;;;3.22;2.13;;;;;;;19.49;52.96;101781.78;5070153;28;20519;-37
2022/10/20 01:22:28;;;;;;;3.85;2.15;;;;;;;19.47;53.05;101775.72;5083768;28;20051;-38
2022/10/20 01:25:13;;;;;;;2.63;2.00;;;;;;;19.47;53.21;101770.34;5086897;28;20052;-39
2022/10/20 01:27:43;;;;;;;3.47;2.10;;;;;;;19.46;53.73;101762.44;5083325;28;20052;-39
2022/10/20 01:30:22;;;;;;;3.00;1.90;;;;;;;19.46;53.03;101760.59;5082881;28;20053;-39
2022/10/20 01:33:30;;;;;;;2.47;1.90;;;;;;;19.42;53.55;101744.88;5080055;28;20049;-39
2022/10/20 01:36:06;;;;;;;3.05;1.90;;;;;;;19.44;53.51;101746.41;5075765;28;20052;-39
2022/10/20 01:38:45;;;;;;;2.50;1.83;;;;;;;19.43;53.76;101751.94;5081133;28;20048;-39
2022/10/20 01:41:34;;;;;;;3.10;2.10;;;;;;;19.42;53.48;101747.56;5078140;28;20151;-39
2022/10/20 01:44:05;;;;;;;3.38;1.85;;;;;;;19.41;53.43;101748.53;5081040;28;20170;-39
2022/10/20 01:46:34;;;;;;;2.85;2.10;;;;;;;19.41;53.67;101756.59;5083745;28;20055;-39
2022/10/20 01:49:03;;;;;;;3.25;2.08;;;;;;;19.39;53.89;101746.00;5086545;28;20047;-39
2022/10/20 01:51:31;;;;;;;2.38;1.58;;;;;;;19.39;53.83;101745.16;5081666;28;20045;-39
2022/10/20 01:53:57;;;;;;;2.63;1.75;;;;;;;19.38;53.06;101735.41;5084434;28;20457;-39
2022/10/20 01:57:00;;;;;;;3.53;1.85;;;;;;;19.37;53.41;101728.31;5087515;28;20481;-39
2022/10/20 01:59:34;;;;;;;2.75;1.95;;;;;;;19.38;53.40;101708.50;5062190;28;20055;-39
2022/10/20 02:02:12;;;;;;;2.92;1.90;;;;;;;19.37;53.69;101712.16;5083283;28;20427;-39
2022/10/20 02:05:00;;;;;;;3.47;2.22;;;;;;;19.35;53.74;101708.78;5082315;28;20048;-39
2022/10/20 02:07:29;;;;;;;3.33;1.80;;;;;;;19.35;53.75;101703.41;5081616;28;20052;-39
2022/10/20 02:10:15;;;;;;;2.45;1.67;;;;;;;19.33;53.42;101708.91;5082738;28;20051;-39
2022/10/20 02:12:48;;;;;;;2.45;1.83;;;;;;;19.34;53.82;101701.72;5081536;28;20052;-39
2022/10/20 02:15:20;;;;;;;3.83;1.90;;;;;;;19.33;53.52;101698.16;5081988;28;20044;-39
2022/10/20 02:17:51;;;;;;;2.45;1.65;;;;;;;19.33;53.28;101705.38;5086517;28;20070;-39
2022/10/20 02:20:18;;;;;;;3.58;1.70;;;;;;;19.32;53.77;101707.22;5084607;28;20044;-39
2022/10/20 02:22:46;;;;;;;2.10;1.70;;;;;;;19.32;53.22;101692.94;5085947;28;20055;-39
2022/10/20 02:25:13;;;;;;;3.08;1.92;;;;;;;19.31;53.79;101678.66;5085598;28;20047;-39
2022/10/20 02:27:45;;;;;;;2.17;1.77;;;;;;;19.31;53.25;101677.81;5083187;28;20052;-39
2022/10/20 02:30:15;;;;;;;2.97;1.50;;;;;;;19.29;53.79;101669.88;5086902;28;20051;-39
2022/10/20 02:32:48;;;;;;;2.47;1.75;;;;;;;19.30;53.44;101665.38;5090494;28;20042;-39
2022/10/20 02:35:19;;;;;;;2.87;2.10;;;;;;;19.29;53.02;101664.50;5086339;28;20044;-39
2022/10/20 02:37:46;;;;;;;2.92;1.75;;;;;;;19.29;53.55;101661.81;5088479;28;20083;-39
2022/10/20 02:40:13;;;;;;;3.38;1.70;;;;;;;19.29;53.27;101660.97;5086764;28;20479;-39
2022/10/20 02:42:41;;;;;;;2.38;1.70;;;;;;;19.28;53.08;101651.22;5083087;28;20044;-39
2022/10/20 02:45:09;;;;;;;3.03;1.80;;;;;;;19.27;53.32;101638.75;5090347;28;20052;-39
2022/10/20 02:47:35;;;;;;;2.88;1.80;;;;;;;19.27;53.37;101631.53;5081905;28;20041;-39
2022/10/20 02:50:03;;;;;;;2.55;1.60;;;;;;;19.27;53.83;101628.00;5084502;28;20450;-39
2022/10/20 02:52:30;;;;;;;2.00;1.67;;;;;;;19.24;53.53;101613.84;5084792;28;20423;-39
2022/10/20 02:54:56;;;;;;;2.88;1.95;;;;;;;19.26;53.85;101621.78;5086146;28;20044;-39
2022/10/20 02:57:23;;;;;;;3.22;1.73;;;;;;;19.23;53.31;101612.16;5085095;28;20051;-39
2022/10/20 02:59:49;;;;;;;2.25;1.50;;;;;;;19.23;54.03;101609.47;5085576;28;20055;-39
2022/10/20 03:02:16;;;;;;;2.53;1.83;;;;;;;19.24;53.67;101610.31;5084482;28;20044;-39
2022/10/20 03:04:42;;;;;;;2.33;1.77;;;;;;;19.22;53.23;101599.72;5085036;28;20587;-39
2022/10/20 03:07:10;;;;;;;2.13;1.58;;;;;;;19.22;53.62;101601.56;5083492;28;20102;-39
2022/10/20 03:09:36;;;;;;;2.72;2.10;;;;;;;19.20;53.53;101588.25;5082972;28;20107;-39
2022/10/20 03:12:03;;;;;;;3.60;2.00;;;;;;;19.20;53.38;101582.88;5085492;28;20101;-39
2022/10/20 03:14:30;;;;;;;3.83;1.88;;;;;;;19.20;53.14;101590.94;5091544;28;20062;-39
2022/10/20 03:16:56;;;;;;;2.78;1.80;;;;;;;19.18;53.76;101606.38;5084512;28;20283;-39
2022/10/20 03:19:23;;;;;;;2.15;1.52;;;;;;;19.19;53.52;101604.53;5083910;28;20412;-39
2022/10/20 03:21:49;;;;;;;3.03;1.80;;;;;;;19.18;53.23;101598.31;5088339;28;20048;-39
2022/10/20 03:24:16;;;;;;;3.10;1.80;;;;;;;19.18;53.57;101581.34;5086190;28;20044;-39
2022/10/20 03:26:42;;;;;;;2.10;1.42;;;;;;;19.18;53.05;101570.59;5083609;28;20052;-39
2022/10/20 03:29:09;;;;;;;2.10;1.55;;;;;;;19.17;53.40;101561.66;5085494;28;20428;-39
2022/10/20 03:31:35;;;;;;;2.35;1.50;;;;;;;19.17;53.81;101555.44;5082596;28;20048;-39
2022/10/20 03:34:02;;;;;;;3.00;1.80;;;;;;;19.16;53.29;101546.53;5086486;28;20159;-39
2022/10/20 03:36:28;;;;;;;3.17;2.00;;;;;;;19.16;53.14;101543.00;5086648;28;20393;-39
2022/10/20 03:38:55;;;;;;;2.88;1.90;;;;;;;19.15;53.33;101544.84;5087410;28;20051;-39
2022/10/20 03:41:21;;;;;;;1.77;1.52;;;;;;;19.14;53.34;101545.84;5085651;28;20049;-39
2022/10/20 03:43:48;;;;;;;3.03;2.15;;;;;;;19.15;53.22;101558.28;5083539;28;20374;-39
2022/10/20 03:46:14;;;;;;;3.15;1.90;;;;;;;19.15;53.68;101550.22;5084216;28;20071;-39
2022/10/20 03:48:41;;;;;;;2.38;1.63;;;;;;;19.14;53.72;101520.81;5073626;28;20362;-39
2022/10/20 03:51:08;;;;;;;2.60;1.50;;;;;;;19.13;53.30;101514.56;5085794;28;20060;-39
2022/10/20 03:53:35;;;;;;;2.47;1.80;;;;;;;19.13;53.81;101508.34;5084046;28;20383;-39
2022/10/20 03:56:06;;;;;;;4.07;1.73;;;;;;;19.13;53.75;101511.03;5087942;28;20079;-39
2022/10/20 03:58:33;;;;;;;2.15;1.60;;;;;;;19.12;53.24;101502.13;5085605;28;20347;-39
2022/10/20 04:01:00;;;;;;;2.97;1.60;;;;;;;19.13;52.92;101492.22;5082994;28;20359;-39
2022/10/20 04:03:26;;;;;;;2.28;1.52;;;;;;;19.12;53.83;101503.97;5085397;28;20389;-37
2022/10/20 04:05:53;;;;;;;2.35;1.45;;;;;;;19.12;53.84;101517.41;5084858;28;20047;-37
2022/10/20 04:08:19;;;;;;;2.22;1.50;;;;;;;19.11;53.65;101521.94;5085229;28;20052;-37
2022/10/20 04:10:46;;;;;;;3.45;2.08;;;;;;;19.11;53.38;101516.56;5085046;28;20048;-38
2022/10/20 04:13:12;;;;;;;2.20;1.60;;;;;;;19.11;53.44;101511.19;5087944;28;20044;-38
2022/10/20 04:15:39;;;;;;;2.88;2.00;;;;;;;19.10;53.51;101497.91;5083934;28;20044;-38
2022/10/20 04:18:05;;;;;;;2.55;1.70;;;;;;;19.09;53.57;101483.59;5084254;28;20048;-38
2022/10/20 04:20:32;;;;;;;3.83;2.05;;;;;;;19.08;53.44;101484.59;5083346;28;20663;-38
2022/10/20 04:22:58;;;;;;;3.78;1.75;;;;;;;19.08;53.83;101487.28;5084704;28;20048;-38
2022/10/20 04:25:24;;;;;;;4.78;1.90;;;;;;;19.09;53.15;101490.81;5092312;28;20431;-38
2022/10/20 04:27:51;;;;;;;3.28;2.15;;;;;;;19.07;53.01;101504.41;5084375;28;20101;-38
2022/10/20 04:30:18;;;;;;;2.80;1.70;;;;;;;19.06;52.96;101505.41;5082493;28;20051;-38
2022/10/20 04:32:44;;;;;;;4.95;2.22;;;;;;;19.07;53.49;101514.31;5083952;28;20424;-38
2022/10/20 04:35:10;;;;;;;2.47;1.67;;;;;;;19.07;53.71;101512.47;5071066;28;20047;-38
2022/10/20 04:37:37;;;;;;;3.05;1.70;;;;;;;19.07;53.33;101500.88;5083412;28;20051;-38
2022/10/20 04:40:05;;;;;;;3.38;1.90;;;;;;;19.06;53.07;101489.28;5081940;28;20504;-38
2022/10/20 04:42:31;;;;;;;2.83;1.83;;;;;;;19.07;53.42;101487.44;5082513;28;20039;-38
2022/10/20 04:44:58;;;;;;;3.20;1.63;;;;;;;19.06;53.47;101488.44;5083691;28;20048;-38
2022/10/20 04:47:24;;;;;;;3.22;1.85;;;;;;;19.06;53.38;101481.22;5082549;28;20044;-38
2022/10/20 04:49:51;;;;;;;4.43;1.83;;;;;;;19.06;53.49;101477.72;5082311;28;20614;-38
2022/10/20 04:52:19;;;;;;;3.22;2.30;;;;;;;19.05;53.11;101471.47;5079714;28;20040;-38
2022/10/20 04:54:46;;;;;;;2.90;1.70;;;;;;;19.05;53.43;101476.00;5084343;28;20459;-38
2022/10/20 04:57:12;;;;;;;3.53;1.92;;;;;;;19.05;53.39;101479.53;5085984;28;20300;-39
2022/10/20 04:59:39;;;;;;;3.30;1.95;;;;;;;19.04;53.23;101483.19;5069759;28;20130;-39
2022/10/20 05:02:05;;;;;;;3.72;2.10;;;;;;;19.05;52.77;101474.16;5090631;28;20051;-39
2022/10/20 05:04:32;;;;;;;2.80;1.98;;;;;;;19.04;52.76;101474.31;5079757;28;20040;-39
2022/10/20 05:06:58;;;;;;;4.95;1.90;;;;;;;19.04;53.69;101456.34;5084377;28;20047;-38
2022/10/20 05:09:25;;;;;;;3.70;2.20;;;;;;;19.04;53.12;101450.97;5083898;28;20059;-39
2022/10/20 05:11:52;;;;;;;3.53;1.90;;;;;;;19.04;52.64;101439.38;5082671;28;20052;-38
2022/10/20 05:14:19;;;;;;;2.78;1.90;;;;;;;19.03;53.28;101438.53;5081252;28;20040;-38
2022/10/20 05:16:45;;;;;;;2.67;2.03;;;;;;;19.03;53.49;101441.22;5083231;28;20048;-39
2022/10/20 05:19:12;;;;;;;4.95;1.75;;;;;;;19.04;53.26;101439.38;5082207;28;20336;-39
2022/10/20 05:21:38;;;;;;;4.38;1.95;;;;;;;19.04;53.65;101452.81;5078132;28;20044;-38
2022/10/20 05:24:05;;;;;;;5.90;2.20;;;;;;;19.02;53.02;101450.28;5084118;28;20062;-38
2022/10/20 05:26:35;;;;;;;3.13;1.90;;;;;;;19.02;53.15;101431.47;5080512;28;20051;-38
2022/10/20 05:29:05;;;;;;;3.28;2.05;;;;;;;19.02;53.03;101418.03;5077408;28;20049;-38
2022/10/20 05:31:36;;;;;;;3.40;2.00;;;;;;;19.02;53.14;101411.81;5087907;28;20073;-38
2022/10/20 05:34:03;;;;;;;3.80;2.00;;;;;;;19.02;53.03;101423.41;5079424;28;20052;-38
2022/10/20 05:36:29;;;;;;;3.38;1.80;;;;;;;19.01;53.24;101410.94;5085501;28;20055;-39
2022/10/20 05:38:56;;;;;;;2.95;1.90;;;;;;;19.00;53.10;101401.19;5084764;28;20055;-39
2022/10/20 05:41:27;;;;;;;2.28;1.73;;;;;;;19.01;53.35;101396.69;5079747;28;20044;-39
2022/10/20 05:44:03;;;;;;;1.90;1.50;;;;;;;19.01;53.63;101396.69;5086866;28;20097;-39
2022/10/20 05:46:32;;;;;;;2.25;1.60;;;;;;;19.01;53.56;101402.88;5080611;28;20340;-39
2022/10/20 05:49:00;;;;;;;2.58;1.67;;;;;;;19.00;53.33;101395.84;5077056;28;20048;-39
2022/10/20 05:51:33;;;;;;;3.80;2.30;;;;;;;19.01;53.78;101380.56;5084797;28;20101;-39
2022/10/20 05:54:00;;;;;;;3.67;1.77;;;;;;;19.02;53.35;101387.66;5085948;28;20053;-39
2022/10/20 05:56:28;;;;;;;2.80;1.90;;;;;;;19.00;52.91;101382.41;5085569;28;20044;-39
2022/10/20 05:58:56;;;;;;;3.30;2.08;;;;;;;18.99;52.97;101375.34;5083613;28;20122;-39
2022/10/20 06:01:26;;;;;;;3.78;1.83;;;;;;;18.99;53.08;101380.72;5083089;28;20052;-39
2022/10/20 06:03:55;;;;;;;2.28;1.75;;;;;;;18.98;53.07;101377.19;5081828;28;20044;-39
2022/10/20 06:06:31;;;;;;;3.03;2.40;;;;;;;18.98;53.09;101385.25;5085762;28;20109;-39
2022/10/20 06:08:59;;;;;;;2.00;1.80;;;;;;;18.98;52.98;101393.31;5087750;28;20047;-39
2022/10/20 06:11:26;;;;;;;3.85;2.13;;;;;;;18.99;53.38;101388.78;5086132;28;20385;-39
2022/10/20 06:13:52;;;;;;;3.38;1.83;;;;;;;18.97;53.17;101386.25;5089767;28;20040;-39
2022/10/20 06:16:21;;;;;;;2.63;1.95;;;;;;;18.99;53.16;101410.25;5087939;28;20053;-39
2022/10/20 06:18:48;;;;;;;3.17;1.85;;;;;;;18.96;53.05;101411.38;5082236;28;20060;-39
2022/10/20 06:21:21;;;;;;;3.13;2.17;;;;;;;18.96;53.02;101403.34;5089205;28;20410;-39
2022/10/20 06:23:48;;;;;;;2.85;2.10;;;;;;;18.97;53.32;101406.88;5083729;28;20098;-39
2022/10/20 06:26:20;;;;;;;3.25;1.88;;;;;;;18.96;53.05;101384.53;5083135;28;20052;-39
2022/10/20 06:28:53;;;;;;;4.20;1.88;;;;;;;18.97;53.23;101380.00;5081859;28;20062;-39
2022/10/20 06:31:27;;;;;;;3.05;1.92;;;;;;;18.97;53.43;101388.06;5080063;28;20055;-39
2022/10/20 06:33:54;;;;;;;2.70;1.95;;;;;;;18.96;53.17;101378.31;5079482;28;20048;-39
2022/10/20 06:36:22;;;;;;;4.88;2.42;;;;;;;18.96;53.28;101381.00;5086624;28;20382;-39
2022/10/20 06:38:55;;;;;;;4.07;1.98;;;;;;;18.95;52.96;101385.53;5083326;28;20058;-39
2022/10/20 06:41:23;;;;;;;3.70;1.92;;;;;;;18.96;53.22;101370.25;5087515;28;20048;-39
2022/10/20 06:43:53;;;;;;;2.72;1.98;;;;;;;18.96;52.81;101371.09;5085740;28;20487;-39
2022/10/20 06:46:20;;;;;;;4.15;1.73;;;;;;;18.97;53.51;101366.56;5085565;28;20048;-39
2022/10/20 06:48:46;;;;;;;3.90;2.00;;;;;;;18.95;53.08;101376.63;5086413;28;20374;-39
2022/10/20 06:51:15;;;;;;;3.40;1.90;;;;;;;18.95;53.10;101385.53;5092125;28;20060;-39
2022/10/20 06:53:42;;;;;;;2.60;1.90;;;;;;;18.96;53.22;101383.69;5081959;28;20052;-39
2022/10/20 06:56:15;;;;;;;3.08;1.80;;;;;;;18.94;53.17;101388.38;5084772;28;20052;-39
2022/10/20 06:58:44;;;;;;;2.78;1.85;;;;;;;18.94;53.10;101404.50;5083244;28;20048;-39
2022/10/20 07:01:13;;;;;;;2.53;1.70;;;;;;;18.95;53.37;101408.88;5085247;28;20483;-39
2022/10/20 07:03:40;;;;;;;4.57;2.15;;;;;;;18.95;52.83;101408.88;5083507;28;20438;-39
2022/10/20 07:06:09;;;;;;;2.83;2.22;;;;;;;18.94;52.59;101393.75;5088505;28;20048;-39
2022/10/20 07:08:36;;;;;;;2.60;1.85;;;;;;;18.95;53.53;101382.00;5082217;28;20052;-39
2022/10/20 07:11:12;;;;;;;3.38;1.98;;;;;;;18.94;52.83;101378.47;5088280;28;20106;-39
2022/10/20 07:13:39;;;;;;;3.08;1.90;;;;;;;18.96;53.37;101370.25;5080660;28;20101;-39
2022/10/20 07:16:07;;;;;;;3.28;2.17;;;;;;;18.94;53.32;101361.50;5080375;28;20056;-39
2022/10/20 07:18:34;;;;;;;2.88;1.92;;;;;;;18.95;53.11;101368.56;5081201;28;20486;-39
2022/10/20 07:21:07;;;;;;;3.35;2.03;;;;;;;18.94;53.00;101359.66;5084081;28;20048;-39
2022/10/20 07:23:35;;;;;;;5.80;2.15;;;;;;;18.95;53.08;101364.03;5086636;28;20083;-39
2022/10/20 07:26:04;;;;;;;2.78;2.05;;;;;;;18.95;52.92;101369.41;5087348;28;20060;-39
2022/10/20 07:28:31;;;;;;;3.05;1.80;;;;;;;18.95;53.35;101366.72;5086507;28;20501;-39
2022/10/20 07:31:03;;;;;;;3.47;2.00;;;;;;;18.95;52.86;101368.56;5085164;28;20055;-39
2022/10/20 07:33:29;;;;;;;2.28;1.70;;;;;;;18.96;52.89;101363.03;5087520;28;20410;-39
2022/10/20 07:35:56;;;;;;;3.05;1.92;;;;;;;18.95;52.65;101366.72;5083662;28;20055;-39
2022/10/20 07:38:22;;;;;;;3.42;2.03;;;;;;;18.96;53.43;101362.19;5084544;28;20575;-39
2022/10/20 07:40:49;;;;;;;2.47;1.85;;;;;;;18.96;52.93;101367.56;5082597;28;20458;-39
2022/10/20 07:43:15;;;;;;;3.85;2.13;;;;;;;18.96;53.36;101370.25;5081422;28;20439;-39
2022/10/20 07:45:42;;;;;;;4.40;2.13;;;;;;;18.96;52.86;101362.19;5081244;28;20048;-39
2022/10/20 07:48:08;;;;;;;3.33;1.80;;;;;;;18.96;53.18;101357.66;5086153;28;20052;-39
2022/10/20 07:50:36;;;;;;;4.78;2.08;;;;;;;18.96;53.05;101356.81;5085029;28;20343;-39
2022/10/20 07:53:05;;;;;;;6.45;2.25;;;;;;;18.97;52.50;101356.69;5084229;28;20060;-39
2022/10/20 07:55:33;;;;;;;1.98;1.60;;;;;;;18.98;52.93;101362.91;5081204;28;20048;-39
2022/10/20 07:58:04;;;;;;;2.93;1.73;;;;;;;18.97;52.96;101358.50;5082671;28;20044;-39
2022/10/20 08:00:31;;;;;;;2.13;1.85;;;;;;;18.97;53.01;101345.06;5081929;28;20075;-39
2022/10/20 08:02:57;;;;;;;2.83;2.00;;;;;;;18.97;52.82;101342.38;5084225;28;20048;-39
2022/10/20 08:05:24;;;;;;;2.95;1.98;;;;;;;18.98;53.30;101352.16;5083920;28;20044;-39
2022/10/20 08:07:51;;;;;;;4.18;2.35;;;;;;;18.97;52.51;101345.06;5087028;28;20052;-39
2022/10/20 08:10:17;;;;;;;3.80;2.00;;;;;;;18.98;53.25;101344.94;5083736;28;20051;-39
2022/10/20 08:12:44;;;;;;;2.50;2.10;;;;;;;18.98;52.97;101344.09;5082806;28;20044;-39
2022/10/20 08:15:10;;;;;;;3.15;2.10;;;;;;;18.98;53.10;101339.56;5083804;28;20044;-39
2022/10/20 08:17:37;;;;;;;2.65;2.00;;;;;;;18.99;53.17;101326.97;5085501;28;20506;-39
2022/10/20 08:20:04;;;;;;;4.32;2.17;;;;;;;18.99;52.99;101329.66;5076785;28;20059;-39
2022/10/20 08:22:45;;;;;;;4.13;2.20;;;;;;;18.99;53.27;101333.19;5082290;28;20044;-39
2022/10/20 08:25:15;;;;;;;3.67;2.00;;;;;;;18.99;52.88;101318.94;5079198;28;20045;-39
2022/10/20 08:27:41;;;;;;;3.05;2.03;;;;;;;19.00;52.81;101328.66;5083363;28;20049;-39
2022/10/20 08:30:09;;;;;;;2.95;2.00;;;;;;;19.00;52.89;101323.28;5082756;28;20044;-39
2022/10/20 08:32:52;;;;;;;3.13;2.33;;;;;;;19.01;52.89;101326.81;5086177;28;20044;-38
2022/10/20 08:35:19;;;;;;;6.45;2.03;;;;;;;19.01;52.64;101337.56;5082260;28;20041;-38
2022/10/20 08:37:46;;;;;;;3.40;2.17;;;;;;;19.01;52.49;101338.41;5081440;28;20039;-38
2022/10/20 08:40:25;;;;;;;3.35;1.85;;;;;;;19.01;52.77;101332.19;5083755;28;20056;-38
2022/10/20 08:42:52;;;;;;;4.20;2.40;;;;;;;19.01;53.09;101332.19;5081985;28;20044;-38
2022/10/20 08:45:22;;;;;;;3.03;2.03;;;;;;;19.03;52.68;101324.84;5088447;28;20052;-38
2022/10/20 08:47:51;;;;;;;3.30;2.55;;;;;;;19.00;52.92;101315.25;5079061;28;20044;-38
2022/10/20 08:50:20;;;;;;;3.10;2.33;;;;;;;19.02;53.03;101323.16;5079522;28;20055;-38
2022/10/20 08:52:51;;;;;;;3.03;2.05;;;;;;;19.02;52.32;101325.84;5082268;28;20052;-38
2022/10/20 08:55:24;;;;;;;2.60;1.80;;;;;;;19.02;52.47;101317.78;5077964;28;20404;-38
2022/10/20 08:57:51;;;;;;;3.08;1.98;;;;;;;19.02;52.87;101305.19;5062205;28;20056;-38
2022/10/20 09:00:21;;;;;;;3.63;2.25;;;;;;;19.02;52.75;101315.94;5079269;28;21112;-39
2022/10/20 09:02:50;;;;;;;3.65;2.20;;;;;;;19.04;52.68;101299.66;5081430;28;20055;-39
2022/10/20 09:05:22;;;;;;;3.78;2.58;;;;;;;19.04;53.00;101286.22;5079337;28;20044;-38
2022/10/20 09:07:48;;;;;;;4.63;2.47;;;;;;;19.03;52.45;101293.47;5081322;28;20450;-38
2022/10/20 09:10:15;;;;;;;3.95;2.33;;;;;;;19.03;52.92;101285.41;5082405;28;20044;-38
2022/10/20 09:12:44;;;;;;;3.15;2.17;;;;;;;19.05;52.64;101287.91;5087210;28;20071;-39
2022/10/20 09:15:12;;;;;;;2.88;2.33;;;;;;;19.04;52.84;101291.59;5086631;28;20075;-39
2022/10/20 09:18:03;;;;;;;6.80;2.63;;;;;;;19.04;52.57;101288.94;5080145;28;20394;-39
2022/10/20 09:20:55;;;;;;;4.57;2.65;;;;;;;19.04;52.61;101295.13;5082856;28;20063;-38
2022/10/20 09:23:27;;;;;;;3.60;2.40;;;;;;;19.05;52.59;101294.13;5081398;28;20052;-38
2022/10/20 09:26:15;;;;;;;2.95;2.10;;;;;;;19.05;52.67;101291.44;5079144;28;20056;-39
2022/10/20 09:29:09;;;;;;;3.75;2.55;;;;;;;19.06;52.83;101286.94;5084306;28;20333;-39
2022/10/20 09:31:52;;;;;;;3.17;2.22;;;;;;;19.05;52.68;101283.38;5079546;28;20424;-38
2022/10/20 09:34:28;;;;;;;3.17;1.98;;;;;;;19.06;52.92;101268.13;5077622;28;20044;-38
2022/10/20 09:37:07;;;;;;;4.47;2.50;;;;;;;19.05;52.87;101267.25;5077524;28;20044;-38
2022/10/20 09:40:01;;;;;;;3.83;2.40;;;;;;;19.05;53.04;101274.50;5080824;28;20055;-38
2022/10/20 09:42:32;;;;;;;3.83;2.35;;;;;;;19.08;52.58;101266.13;5080025;28;20056;-38
2022/10/20 09:45:05;;;;;;;2.95;1.88;;;;;;;19.07;52.61;101267.97;5083220;28;20051;-38
2022/10/20 09:47:33;;;;;;;4.15;2.35;;;;;;;19.07;52.61;101270.66;5080846;28;20468;-38
2022/10/20 09:50:05;;;;;;;5.28;2.67;;;;;;;19.08;52.66;101266.13;5083284;28;20052;-38
2022/10/20 09:52:46;;;;;;;3.72;2.25;;;;;;;19.07;52.94;101259.91;5085409;28;20053;-38
2022/10/20 09:55:27;;;;;;;3.00;2.03;;;;;;;19.08;52.56;101256.22;5082933;28;20044;-38
2022/10/20 09:57:56;;;;;;;3.28;2.35;;;;;;;19.10;52.87;101264.16;5084910;28;20048;-38
2022/10/20 10:00:43;;;;;;;3.97;2.40;;;;;;;19.10;52.69;101266.84;5081459;28;20207;-38
2022/10/20 10:03:22;;;;;;;5.93;2.28;;;;;;;19.10;53.22;101266.84;5081600;28;20125;-38
2022/10/20 10:05:54;;;;;;;2.63;2.08;;;;;;;19.09;52.82;101265.13;5080807;28;20041;-38
2022/10/20 10:08:25;;;;;;;5.57;2.45;;;;;;;19.10;52.51;101251.56;5081836;28;20076;-38
2022/10/20 10:11:03;;;;;;;4.95;2.05;;;;;;;19.10;52.61;101246.19;5081924;28;20117;-38
2022/10/20 10:13:39;;;;;;;5.00;2.08;;;;;;;19.11;52.65;101252.41;5082374;28;20362;-38
2022/10/20 10:16:09;;;;;;;4.18;2.20;;;;;;;19.12;52.55;101256.78;5077843;28;20052;-38
2022/10/20 10:18:37;;;;;;;2.90;2.50;;;;;;;19.12;52.67;101257.63;5078594;28;20055;-38
2022/10/20 10:21:10;;;;;;;2.88;2.35;;;;;;;19.12;52.65;101249.56;5072567;28;20117;-38
2022/10/20 10:24:00;;;;;;;5.25;2.30;;;;;;;19.12;52.46;101260.31;5082320;28;20063;-38
2022/10/20 10:26:36;;;;;;;2.67;2.03;;;;;;;19.12;53.18;101257.63;5082469;28;20036;-38
2022/10/20 10:29:03;;;;;;;2.58;2.15;;;;;;;19.14;52.79;101255.63;5080049;28;20359;-38
2022/10/20 10:31:32;;;;;;;3.10;2.05;;;;;;;19.13;52.96;101251.25;5081693;28;20075;-38
2022/10/20 10:34:27;;;;;;;3.38;2.10;;;;;;;19.13;52.44;101239.66;5085102;28;20045;-39
2022/10/20 10:36:54;;;;;;;2.92;2.20;;;;;;;19.13;52.65;101243.19;5081869;28;20048;-39
2022/10/20 10:39:20;;;;;;;4.10;2.42;;;;;;;19.14;52.79;101226.09;5088372;28;20101;-39
2022/10/20 10:42:06;;;;;;;3.30;2.22;;;;;;;19.13;52.68;101216.31;5082820;28;20051;-39
2022/10/20 10:44:51;;;;;;;3.58;2.30;;;;;;;19.13;52.97;101219.00;5083824;28;20535;-38
2022/10/20 10:47:35;;;;;;;5.13;2.17;;;;;;;19.13;53.33;101200.19;5086267;28;20463;-38
2022/10/20 10:50:26;;;;;;;2.95;2.13;;;;;;;19.15;53.20;101214.34;5081822;28;20058;-38
2022/10/20 10:52:58;;;;;;;3.90;2.70;;;;;;;19.15;52.83;101206.28;5083131;28;20052;-38
2022/10/20 10:55:32;;;;;;;4.95;2.05;;;;;;;19.16;53.00;101193.69;5084980;28;20420;-38
2022/10/20 10:58:44;;;;;;;4.88;2.17;;;;;;;19.16;52.87;101199.06;5087935;28;20055;-38
2022/10/20 11:01:19;;;;;;;3.95;2.83;;;;;;;19.16;52.89;101189.16;5083768;28;20419;-39
2022/10/20 11:04:22;;;;;;;5.28;2.53;;;;;;;19.16;53.22;101167.66;5086249;28;20103;-39
2022/10/20 11:07:10;;;;;;;3.03;2.20;;;;;;;19.16;52.65;101153.38;5085799;28;20063;-39
2022/10/20 11:10:01;;;;;;;4.05;2.17;;;;;;;19.15;53.24;101163.28;5091806;28;20082;-39
2022/10/20 11:12:36;;;;;;;3.10;2.13;;;;;;;19.17;52.83;101155.06;5082273;28;20055;-39
2022/10/20 11:15:25;;;;;;;4.25;2.60;;;;;;;19.15;53.23;101157.91;5085067;28;20055;-39
2022/10/20 11:17:51;;;;;;;5.25;2.47;;;;;;;19.17;52.80;101142.47;5086386;28;20054;-39
2022/10/20 11:20:36;;;;;;;3.17;2.40;;;;;;;19.17;52.76;101144.31;5081730;28;20060;-39
2022/10/20 11:23:26;;;;;;;4.78;2.42;;;;;;;19.16;53.22;101151.53;5086108;28;20079;-39
2022/10/20 11:26:07;;;;;;;3.35;2.03;;;;;;;19.17;52.85;101155.91;5084323;28;20040;-39
2022/10/20 11:28:44;;;;;;;5.88;2.33;;;;;;;19.17;53.04;101176.56;5078316;28;20513;-39
2022/10/20 11:31:21;;;;;;;3.67;2.15;;;;;;;19.18;52.96;101178.25;5087585;28;20039;-39
2022/10/20 11:33:55;;;;;;;2.47;2.10;;;;;;;19.18;53.33;101165.66;5085716;28;20430;-39
2022/10/20 11:36:24;;;;;;;2.95;2.15;;;;;;;19.19;53.21;101163.81;5080657;28;20174;-39
2022/10/20 11:38:55;;;;;;;3.95;2.10;;;;;;;19.18;53.10;101162.13;5083030;28;20052;-39
2022/10/20 11:41:31;;;;;;;3.38;2.17;;;;;;;19.18;53.01;101157.59;5080306;28;20052;-39
2022/10/20 11:44:25;;;;;;;6.25;2.65;;;;;;;19.18;53.34;101152.22;5082767;28;20361;-39